createdAt,value
2022-11-26T00:00:54.924Z,102270.72
2022-11-26T00:03:23.231Z,102269.03
2022-11-26T00:05:54.827Z,102268.25
2022-11-26T00:08:25.921Z,102264.75
2022-11-26T00:10:54.938Z,102268.25
2022-11-26T00:13:25.970Z,102270.59
2022-11-26T00:15:57.942Z,102281.22
2022-11-26T00:18:26.883Z,102262.22
2022-11-26T00:20:57.284Z,102284.06
2022-11-26T00:23:27.403Z,102288.47
2022-11-26T00:26:00.645Z,102279.00
2022-11-26T00:28:31.170Z,102271.75
2022-11-26T00:31:03.882Z,102280.69
2022-11-26T00:33:32.721Z,102282.38
2022-11-26T00:36:04.124Z,102291.81
2022-11-26T00:38:32.758Z,102296.22
2022-11-26T00:41:00.789Z,102284.19
2022-11-26T00:43:28.581Z,102294.66
2022-11-26T00:45:56.518Z,102291.16
2022-11-26T00:48:25.771Z,102289.47
2022-11-26T00:50:53.738Z,102283.03
2022-11-26T00:53:26.702Z,102295.44
2022-11-26T00:55:54.586Z,102188.47
2022-11-26T00:58:26.036Z,102298.81
2022-11-26T01:00:55.151Z,102284.22
2022-11-26T01:03:23.205Z,102284.34
2022-11-26T01:05:54.821Z,102295.97
2022-11-26T01:08:29.962Z,102301.16
2022-11-26T01:10:58.088Z,102301.94
2022-11-26T01:13:26.451Z,102302.84
2022-11-26T01:15:56.235Z,102303.63
2022-11-26T01:18:25.082Z,102290.44
2022-11-26T01:20:54.234Z,102305.31
2022-11-26T01:23:22.174Z,102291.22
2022-11-26T01:25:49.986Z,102298.31
2022-11-26T01:28:19.728Z,102305.97
2022-11-26T01:30:48.227Z,102302.47
2022-11-26T01:33:16.053Z,102307.66
2022-11-26T01:35:43.835Z,102301.69
2022-11-26T01:38:15.188Z,102290.59
2022-11-26T01:41:03.127Z,102267.31
2022-11-26T01:43:34.476Z,102307.66
2022-11-26T01:46:02.279Z,102284.25
2022-11-26T01:48:33.569Z,102309.09
2022-11-26T01:51:05.521Z,102284.25
2022-11-26T01:53:45.916Z,102295.91
2022-11-26T01:56:31.901Z,102302.50
2022-11-26T01:59:04.176Z,102252.97
2022-11-26T02:01:32.948Z,102306.13
2022-11-26T02:04:10.476Z,102309.50
2022-11-26T02:06:38.949Z,102199.91
2022-11-26T02:09:09.936Z,102286.88
2022-11-26T02:11:38.328Z,102264.13
2022-11-26T02:14:09.864Z,102312.09
2022-11-26T02:16:50.787Z,102318.06
2022-11-26T02:20:06.569Z,102315.34
2022-11-26T02:23:10.285Z,102318.72
2022-11-26T02:26:02.296Z,102316.91
2022-11-26T02:28:49.963Z,102322.09
2022-11-26T02:31:25.614Z,102324.03
2022-11-26T02:33:57.538Z,102324.81
2022-11-26T02:36:29.622Z,102330.13
2022-11-26T02:38:57.369Z,102328.44
2022-11-26T02:41:33.978Z,102326.63
2022-11-26T02:44:01.850Z,102320.53
2022-11-26T02:46:31.099Z,102323.91
2022-11-26T02:48:59.374Z,102300.09
2022-11-26T02:51:33.478Z,102315.63
2022-11-26T02:54:03.138Z,102320.53
2022-11-26T02:56:31.566Z,102333.59
2022-11-26T02:58:59.597Z,102323.66
2022-11-26T03:01:34.252Z,102325.84
2022-11-26T03:04:06.511Z,102311.34
2022-11-26T03:06:35.688Z,102330.00
2022-11-26T03:09:03.676Z,102323.91
2022-11-26T03:11:31.521Z,102322.22
2022-11-26T03:13:59.694Z,102314.44
2022-11-26T03:16:27.639Z,102323.78
2022-11-26T03:18:57.035Z,102327.94
2022-11-26T03:21:25.017Z,102323.53
2022-11-26T03:23:53.109Z,102279.81
2022-11-26T03:26:22.987Z,102325.09
2022-11-26T03:28:50.909Z,102316.03
2022-11-26T03:31:18.892Z,102317.84
2022-11-26T03:33:46.757Z,102302.44
2022-11-26T03:36:16.150Z,102332.72
2022-11-26T03:38:44.072Z,102338.81
2022-11-26T03:41:11.918Z,102337.00
2022-11-26T03:43:42.269Z,102339.59
2022-11-26T03:46:10.179Z,102336.09
2022-11-26T03:48:38.238Z,102341.94
2022-11-26T03:51:06.222Z,102339.34
2022-11-26T03:53:35.516Z,102341.56
2022-11-26T03:56:03.277Z,102348.69
2022-11-26T03:58:31.390Z,102330.56
2022-11-26T04:00:59.285Z,102350.34
2022-11-26T04:03:27.157Z,102350.22
2022-11-26T04:05:55.027Z,102350.22
2022-11-26T04:08:22.913Z,102339.38
2022-11-26T04:10:52.033Z,102341.03
2022-11-26T04:13:20.357Z,102350.22
2022-11-26T04:15:49.525Z,102356.97
2022-11-26T04:18:17.744Z,102337.81
2022-11-26T04:20:50.007Z,102350.88
2022-11-26T04:23:20.606Z,102353.47
2022-11-26T04:25:48.503Z,102345.06
2022-11-26T04:28:17.670Z,102354.38
2022-11-26T04:30:45.612Z,102363.06
2022-11-26T04:33:14.344Z,102362.03
2022-11-26T04:35:42.090Z,102363.97
2022-11-26T04:38:09.956Z,102363.19
2022-11-26T04:40:37.878Z,102362.16
2022-11-26T04:43:05.649Z,102370.31
2022-11-26T04:45:34.877Z,102371.34
2022-11-26T04:48:02.850Z,102360.72
2022-11-26T04:50:30.657Z,102364.09
2022-11-26T04:52:58.657Z,102367.97
2022-11-26T04:55:26.770Z,102368.88
2022-11-26T04:57:54.639Z,102366.28
2022-11-26T05:00:22.960Z,102367.72
2022-11-26T05:02:52.447Z,102372.38
2022-11-26T05:05:20.390Z,102323.59
2022-11-26T05:07:48.384Z,102374.84
2022-11-26T05:10:16.424Z,102380.00
2022-11-26T05:12:44.178Z,102373.16
2022-11-26T05:15:12.729Z,102381.06
2022-11-26T05:17:40.565Z,102373.53
2022-11-26T05:20:11.266Z,102328.38
2022-11-26T05:22:39.166Z,102379.25
2022-11-26T05:25:07.763Z,102384.41
2022-11-26T05:27:35.661Z,102388.81
2022-11-26T05:30:03.852Z,102382.34
2022-11-26T05:32:31.859Z,102397.50
2022-11-26T05:35:00.380Z,102398.41
2022-11-26T05:37:29.817Z,102399.19
2022-11-26T05:39:57.721Z,102406.06
2022-11-26T05:42:25.480Z,102404.38
2022-11-26T05:44:53.387Z,102401.78
2022-11-26T05:47:21.345Z,102406.06
2022-11-26T05:49:49.141Z,102398.41
2022-11-26T05:52:17.023Z,102401.78
2022-11-26T05:54:46.234Z,102403.59
2022-11-26T05:57:14.139Z,102402.69
2022-11-26T05:59:41.998Z,102398.94
2022-11-26T06:02:09.925Z,102410.59
2022-11-26T06:04:38.059Z,102412.13
2022-11-26T06:07:06.229Z,102414.72
2022-11-26T06:09:34.225Z,102412.13
2022-11-26T06:12:03.654Z,102424.31
2022-11-26T06:14:31.568Z,102420.03
2022-11-26T06:16:59.626Z,102425.22
2022-11-26T06:19:28.893Z,102426.00
2022-11-26T06:21:56.818Z,102426.91
2022-11-26T06:24:24.651Z,102409.16
2022-11-26T06:26:52.397Z,102416.81
2022-11-26T06:29:26.440Z,102417.19
2022-11-26T06:31:56.123Z,102420.69
2022-11-26T06:34:24.406Z,102375.91
2022-11-26T06:36:52.527Z,102426.66
2022-11-26T06:39:20.489Z,102424.97
2022-11-26T06:41:48.355Z,102426.53
2022-11-26T06:44:18.484Z,102419.28
2022-11-26T06:46:48.007Z,102424.06
2022-11-26T06:49:15.877Z,102428.97
2022-11-26T06:51:43.677Z,102435.84
2022-11-26T06:54:11.813Z,102433.38
2022-11-26T06:56:39.635Z,102434.94
2022-11-26T06:59:07.960Z,102444.78
2022-11-26T07:01:35.921Z,102438.69
2022-11-26T07:04:05.346Z,102431.31
2022-11-26T07:06:34.404Z,102434.94
2022-11-26T07:09:05.538Z,102444.78
2022-11-26T07:11:34.023Z,102445.69
2022-11-26T07:14:02.517Z,102451.78
2022-11-26T07:16:31.013Z,102447.50
2022-11-26T07:19:03.020Z,102437.16
2022-11-26T07:21:32.686Z,102445.03
2022-11-26T07:24:00.642Z,102448.53
2022-11-26T07:26:28.489Z,102451.25
2022-11-26T07:28:59.638Z,102454.50
2022-11-26T07:31:27.801Z,102456.56
2022-11-26T07:33:55.586Z,102452.94
2022-11-26T07:36:25.782Z,102445.31
2022-11-26T07:38:57.023Z,102462.28
2022-11-26T07:41:26.425Z,102449.59
2022-11-26T07:43:54.274Z,102454.13
2022-11-26T07:46:24.282Z,102461.50
2022-11-26T07:48:52.524Z,102463.31
2022-11-26T07:51:22.619Z,102464.22
2022-11-26T07:53:51.290Z,102475.63
2022-11-26T07:56:21.230Z,102465.91
2022-11-26T07:58:49.666Z,102474.84
2022-11-26T08:01:19.466Z,102481.84
2022-11-26T08:03:50.698Z,102481.97
2022-11-26T08:06:20.882Z,102462.94
2022-11-26T08:08:49.705Z,102484.56
2022-11-26T08:11:21.245Z,102472.25
2022-11-26T08:13:49.809Z,102477.69
2022-11-26T08:16:17.684Z,102486.25
2022-11-26T08:18:45.700Z,102481.56
2022-11-26T08:21:13.644Z,102488.84
2022-11-26T08:23:41.488Z,102480.66
2022-11-26T08:29:00.876Z,102481.44
2022-11-26T08:31:29.311Z,102491.44
2022-11-26T08:33:58.959Z,102499.97
2022-11-26T08:36:26.962Z,102511.38
2022-11-26T08:38:56.285Z,102508.78
2022-11-26T08:41:24.854Z,102511.38
2022-11-26T08:44:08.716Z,102501.78
2022-11-26T08:46:39.139Z,102506.97
2022-11-26T08:49:09.050Z,102500.75
2022-11-26T08:51:37.244Z,102502.69
2022-11-26T08:54:05.428Z,102500.22
2022-11-26T08:56:34.230Z,102498.28
2022-11-26T08:59:02.275Z,102490.91
2022-11-26T09:01:32.679Z,102509.03
2022-11-26T09:04:03.321Z,102506.47
2022-11-26T09:06:32.866Z,102502.69
2022-11-26T09:09:14.756Z,102512.41
2022-11-26T09:11:46.165Z,102503.72
2022-11-26T09:14:17.653Z,102498.16
2022-11-26T09:16:46.062Z,102500.75
2022-11-26T09:19:16.106Z,102452.81
2022-11-26T09:21:44.559Z,102510.72
2022-11-26T09:24:12.718Z,102517.72
2022-11-26T09:26:41.123Z,102522.91
2022-11-26T09:29:08.985Z,102507.75
2022-11-26T09:31:45.893Z,102529.78
2022-11-26T09:34:24.577Z,102529.00
2022-11-26T09:36:52.408Z,102535.09
2022-11-26T09:39:20.193Z,102529.91
2022-11-26T09:41:57.414Z,102531.72
2022-11-26T09:44:35.378Z,102532.63
2022-11-26T09:47:12.418Z,102525.00
2022-11-26T09:49:50.781Z,102526.66
2022-11-26T09:52:22.186Z,102531.06
2022-11-26T09:54:54.781Z,102532.13
2022-11-26T09:57:29.200Z,102523.31
2022-11-26T09:59:57.577Z,102526.94
2022-11-26T10:02:26.884Z,102529.78
2022-11-26T10:04:56.242Z,102525.50
2022-11-26T10:07:44.219Z,102528.22
2022-11-26T10:10:21.295Z,102524.84
2022-11-26T10:13:17.927Z,102516.69
2022-11-26T10:15:56.112Z,102524.22
2022-11-26T10:18:32.139Z,102488.19
2022-11-26T10:21:08.304Z,102529.41
2022-11-26T10:23:41.473Z,102534.72
2022-11-26T10:26:16.624Z,102533.94
2022-11-26T10:28:47.009Z,102533.94
2022-11-26T10:31:21.962Z,102520.44
2022-11-26T10:33:56.629Z,102541.84
2022-11-26T10:36:28.232Z,102539.13
2022-11-26T10:38:57.528Z,102543.38
2022-11-26T10:41:29.343Z,102544.28
2022-11-26T10:43:57.640Z,102541.97
2022-11-26T10:46:34.481Z,102530.94
2022-11-26T10:49:23.363Z,102538.47
2022-11-26T10:51:56.050Z,102548.19
2022-11-26T10:54:27.853Z,102539.38
2022-11-26T10:56:57.379Z,102512.53
2022-11-26T10:59:29.714Z,102536.78
2022-11-26T11:02:04.475Z,102538.97
2022-11-26T11:04:35.986Z,102550.78
2022-11-26T11:07:11.701Z,102548.19
2022-11-26T11:09:39.812Z,102553.09
2022-11-26T11:12:23.113Z,102557.53
2022-11-26T11:14:52.214Z,102559.22
2022-11-26T11:17:30.964Z,102555.84
2022-11-26T11:20:00.392Z,102544.28
2022-11-26T11:22:29.742Z,102560.38
2022-11-26T11:25:00.289Z,102565.69
2022-11-26T11:27:36.912Z,102564.00
2022-11-26T11:30:05.526Z,102574.38
2022-11-26T11:32:37.323Z,102559.22
2022-11-26T11:35:23.541Z,102576.31
2022-11-26T11:37:54.866Z,102565.81
2022-11-26T11:40:27.685Z,102555.97
2022-11-26T11:42:58.269Z,102528.50
2022-11-26T11:45:33.567Z,102564.91
2022-11-26T11:48:13.437Z,102566.72
2022-11-26T11:50:46.843Z,102565.94
2022-11-26T11:53:29.947Z,102559.06
2022-11-26T11:56:18.423Z,102560.63
2022-11-26T11:59:24.135Z,102462.66
2022-11-26T12:02:14.398Z,102562.44
2022-11-26T12:05:04.639Z,102562.06
2022-11-26T12:07:41.766Z,102561.94
2022-11-26T12:10:17.480Z,102566.84
2022-11-26T12:12:48.942Z,102556.75
2022-11-26T12:15:26.298Z,102566.84
2022-11-26T12:18:01.778Z,102567.63
2022-11-26T12:20:35.595Z,102559.06
2022-11-26T12:23:24.514Z,102558.69
2022-11-26T12:25:57.901Z,102562.56
2022-11-26T12:28:29.223Z,102531.84
2022-11-26T12:31:02.432Z,102562.56
2022-11-26T12:33:35.600Z,102540.81
2022-11-26T12:36:13.763Z,102527.44
2022-11-26T12:38:47.676Z,102516.19
2022-11-26T12:41:21.280Z,102567.75
2022-11-26T12:43:54.580Z,102556.75
2022-11-26T12:46:27.548Z,102569.56
2022-11-26T12:48:58.062Z,102563.34
2022-11-26T12:51:32.658Z,102555.44
2022-11-26T12:54:11.087Z,102566.72
2022-11-26T12:56:48.776Z,102563.34
2022-11-26T12:59:23.392Z,102557.25
2022-11-26T13:01:52.216Z,102565.94
2022-11-26T13:04:37.329Z,102539.50
2022-11-26T13:07:19.456Z,102567.50
2022-11-26T13:10:02.244Z,102556.09
2022-11-26T13:12:45.594Z,102568.28
2022-11-26T13:15:21.170Z,102568.16
2022-11-26T13:17:50.937Z,102572.28
2022-11-26T13:20:49.452Z,102568.03
2022-11-26T13:23:32.022Z,102573.72
2022-11-26T13:26:16.282Z,102575.66
2022-11-26T13:29:15.287Z,102563.22
2022-11-26T13:31:59.292Z,102589.16
2022-11-26T13:34:40.139Z,102591.59
2022-11-26T13:37:20.153Z,102594.06
2022-11-26T13:40:17.990Z,102602.50
2022-11-26T13:42:58.450Z,102601.44
2022-11-26T13:45:42.849Z,102598.72
2022-11-26T13:48:16.557Z,102587.56
2022-11-26T13:50:48.314Z,102585.50
2022-11-26T13:53:26.541Z,102527.69
2022-11-26T13:55:58.506Z,102596.91
2022-11-26T13:58:31.155Z,102600.66
2022-11-26T14:01:27.400Z,102605.06
2022-11-26T14:03:55.849Z,102610.13
2022-11-26T14:06:24.525Z,102602.34
2022-11-26T14:08:56.857Z,102566.53
2022-11-26T14:11:57.219Z,102605.72
2022-11-26T14:14:33.089Z,102603.91
2022-11-26T14:17:18.146Z,102609.84
2022-11-26T14:20:15.953Z,102606.09
2022-11-26T14:22:43.832Z,102602.44
2022-11-26T14:25:14.487Z,102612.81
2022-11-26T14:27:50.405Z,102603.22
2022-11-26T14:30:28.403Z,102612.69
2022-11-26T14:33:06.366Z,102616.84
2022-11-26T14:35:36.201Z,102607.25
2022-11-26T14:38:06.202Z,102607.88
2022-11-26T14:40:36.901Z,102615.53
2022-11-26T14:43:16.760Z,102612.78
2022-11-26T14:45:46.077Z,102621.34
2022-11-26T14:48:25.300Z,102609.53
2022-11-26T14:50:54.951Z,102613.44
2022-11-26T14:53:24.814Z,102610.84
2022-11-26T14:55:53.404Z,102610.84
2022-11-26T14:58:27.909Z,102502.06
2022-11-26T15:01:08.251Z,102610.34
2022-11-26T15:03:37.675Z,102612.94
2022-11-26T15:06:05.701Z,102571.94
2022-11-26T15:08:33.589Z,102619.03
2022-11-26T15:11:03.788Z,102603.97
2022-11-26T15:13:37.114Z,102612.94
2022-11-26T15:16:26.357Z,102491.44
2022-11-26T15:18:56.665Z,102607.75
2022-11-26T15:21:27.101Z,102577.66
2022-11-26T15:23:57.912Z,102570.38
2022-11-26T15:26:30.473Z,102613.72
2022-11-26T15:28:58.293Z,102581.91
2022-11-26T15:31:26.145Z,102613.56
2022-11-26T15:33:55.645Z,102614.34
2022-11-26T15:36:23.474Z,102617.72
2022-11-26T15:39:02.961Z,102617.72
2022-11-26T15:41:31.537Z,102615.75
2022-11-26T15:44:01.065Z,102613.03
2022-11-26T15:46:31.870Z,102616.53
2022-11-26T15:49:04.479Z,102616.25
2022-11-26T15:51:37.428Z,102574.66
2022-11-26T15:54:07.716Z,102629.47
2022-11-26T15:56:38.889Z,102626.00
2022-11-26T15:59:16.321Z,102629.47
2022-11-26T16:01:46.235Z,102626.91
2022-11-26T16:04:46.701Z,102626.91
2022-11-26T16:07:17.601Z,102631.31
2022-11-26T16:09:46.669Z,102623.91
2022-11-26T16:12:31.095Z,102630.41
2022-11-26T16:15:21.322Z,102634.53
2022-11-26T16:17:50.640Z,102635.56
2022-11-26T16:20:22.022Z,102637.25
2022-11-26T16:22:53.720Z,102632.72
2022-11-26T16:25:24.093Z,102637.00
2022-11-26T16:28:14.504Z,102631.66
2022-11-26T16:30:44.521Z,102636.72
2022-11-26T16:33:12.479Z,102643.44
2022-11-26T16:35:46.030Z,102636.31
2022-11-26T16:38:21.674Z,102643.44
2022-11-26T16:40:50.029Z,102641.63
2022-11-26T16:43:18.298Z,102636.94
2022-11-26T16:45:46.974Z,102650.06
2022-11-26T16:48:24.217Z,102603.56
2022-11-26T16:50:52.680Z,102654.88
2022-11-26T16:53:22.117Z,102652.94
2022-11-26T16:55:51.191Z,102643.06
2022-11-26T16:58:27.507Z,102642.44
2022-11-26T17:00:56.095Z,102643.22
2022-11-26T17:03:24.679Z,102648.38
2022-11-26T17:05:55.097Z,102643.97
2022-11-26T17:08:24.588Z,102643.97
2022-11-26T17:10:52.383Z,102635.94
2022-11-26T17:13:20.736Z,102642.66
2022-11-26T17:15:49.254Z,102650.97
2022-11-26T17:18:20.382Z,102655.25
2022-11-26T17:20:48.533Z,102653.44
2022-11-26T17:23:16.758Z,102606.25
2022-11-26T17:25:47.741Z,102656.03
2022-11-26T17:28:16.767Z,102657.97
2022-11-26T17:30:46.153Z,102652.16
2022-11-26T17:33:14.174Z,102654.63
2022-11-26T17:35:42.100Z,102653.56
2022-11-26T17:38:15.946Z,102646.56
2022-11-26T17:40:46.401Z,102649.16
2022-11-26T17:43:14.713Z,102636.44
2022-11-26T17:45:43.006Z,102642.81
2022-11-26T17:48:12.784Z,102640.84
2022-11-26T17:50:42.610Z,102635.00
2022-11-26T17:53:10.613Z,102622.41
2022-11-26T17:55:39.518Z,102639.41
2022-11-26T17:58:12.204Z,102644.44
2022-11-26T18:00:41.748Z,102639.94
2022-11-26T18:03:09.807Z,102643.31
2022-11-26T18:05:41.850Z,102628.78
2022-11-26T18:08:10.302Z,102648.34
2022-11-26T18:10:40.416Z,102619.00
2022-11-26T18:13:09.558Z,102650.66
2022-11-26T18:15:37.574Z,102647.03
2022-11-26T18:18:05.605Z,102645.97
2022-11-26T18:20:33.383Z,102646.91
2022-11-26T18:23:01.925Z,102639.75
2022-11-26T18:25:34.572Z,102630.41
2022-11-26T18:28:02.445Z,102652.44
2022-11-26T18:30:31.610Z,102643.47
2022-11-26T18:32:59.492Z,102608.69
2022-11-26T18:35:27.443Z,102647.47
2022-11-26T18:37:55.201Z,102649.28
2022-11-26T18:40:23.028Z,102485.25
2022-11-26T18:42:53.017Z,102649.28
2022-11-26T18:45:21.185Z,102649.28
2022-11-26T18:47:50.506Z,102648.38
2022-11-26T18:50:19.290Z,102645.66
2022-11-26T18:52:47.130Z,102649.03
2022-11-26T18:55:15.869Z,102630.72
2022-11-26T18:57:43.782Z,102609.25
2022-11-26T19:00:12.566Z,102660.66
2022-11-26T19:02:40.575Z,102651.06
2022-11-26T19:05:10.332Z,102663.38
2022-11-26T19:07:38.698Z,102660.00
2022-11-26T19:10:08.062Z,102656.50
2022-11-26T19:12:36.178Z,102626.13
2022-11-26T19:15:04.753Z,102661.41
2022-11-26T19:17:32.713Z,102657.00
2022-11-26T19:20:00.856Z,102651.56
2022-11-26T19:22:30.032Z,102659.59
2022-11-26T19:24:57.902Z,102662.69
2022-11-26T19:27:25.849Z,102664.63
2022-11-26T19:29:53.682Z,102651.28
2022-11-26T19:32:21.614Z,102660.38
2022-11-26T19:34:49.608Z,102655.19
2022-11-26T19:37:17.517Z,102662.97
2022-11-26T19:39:46.828Z,102659.81
2022-11-26T19:42:14.839Z,102663.44
2022-11-26T19:44:42.786Z,102666.81
2022-11-26T19:47:11.265Z,102673.81
2022-11-26T19:49:39.546Z,102673.66
2022-11-26T19:52:07.541Z,102668.34
2022-11-26T19:54:35.612Z,102664.31
2022-11-26T19:57:05.131Z,102670.38
2022-11-26T19:59:33.075Z,102665.06
2022-11-26T20:02:01.085Z,102658.84
2022-11-26T20:04:30.615Z,102664.78
2022-11-26T20:06:59.111Z,102670.72
2022-11-26T20:09:27.104Z,102669.69
2022-11-26T20:11:55.000Z,102678.22
2022-11-26T20:14:24.307Z,102670.31
2022-11-26T20:16:55.177Z,102671.22
2022-11-26T20:19:28.541Z,102675.50
2022-11-26T20:21:56.492Z,102673.66
2022-11-26T20:24:24.328Z,102667.44
2022-11-26T20:26:52.243Z,102668.97
2022-11-26T20:29:20.180Z,102670.94
2022-11-26T20:31:51.432Z,102670.94
2022-11-26T20:34:21.640Z,102677.03
2022-11-26T20:36:50.138Z,102676.75
2022-11-26T20:39:19.892Z,102616.75
2022-11-26T20:41:48.395Z,102679.53
2022-11-26T20:44:16.462Z,102683.94
2022-11-26T20:46:44.341Z,102683.53
2022-11-26T20:49:16.030Z,102691.56
2022-11-26T20:51:43.988Z,102691.56
2022-11-26T20:54:11.826Z,102681.06
2022-11-26T20:56:39.942Z,102690.66
2022-11-26T20:59:09.827Z,102694.91
2022-11-26T21:01:41.343Z,102691.44
2022-11-26T21:04:09.666Z,102696.59
2022-11-26T21:06:38.870Z,102698.28
2022-11-26T21:09:07.529Z,102693.09
2022-11-26T21:11:35.952Z,102691.16
2022-11-26T21:14:08.486Z,102681.75
2022-11-26T21:16:38.815Z,102695.88
2022-11-26T21:19:06.672Z,102694.06
2022-11-26T21:21:34.626Z,102692.25
2022-11-26T21:24:06.508Z,102685.25
2022-11-26T21:26:34.769Z,102697.28
2022-11-26T21:29:03.492Z,102695.31
2022-11-26T21:31:32.423Z,102571.06
2022-11-26T21:34:02.443Z,102687.41
2022-11-26T21:36:32.108Z,102689.09
2022-11-26T21:39:02.994Z,102677.41
2022-11-26T21:41:33.583Z,102690.00
2022-11-26T21:44:03.936Z,102683.50
2022-11-26T21:46:38.499Z,102653.91
2022-11-26T21:49:07.522Z,102683.31
2022-11-26T21:51:35.504Z,102687.72
2022-11-26T21:54:03.340Z,102682.53
2022-11-26T21:56:33.453Z,102685.88
2022-11-26T21:59:02.878Z,102689.25
2022-11-26T22:01:32.831Z,102687.56
2022-11-26T22:04:03.377Z,102686.03
2022-11-26T22:06:32.095Z,102641.47
2022-11-26T22:09:00.124Z,102682.81
2022-11-26T22:11:30.912Z,102576.94
2022-11-26T22:14:00.569Z,102693.94
2022-11-26T22:16:30.780Z,102702.75
2022-11-26T22:18:59.979Z,102693.31
2022-11-26T22:21:30.734Z,102696.66
2022-11-26T22:24:00.799Z,102680.56
2022-11-26T22:26:29.759Z,102692.25
2022-11-26T22:28:58.204Z,102687.09
2022-11-26T22:31:29.644Z,102693.16
2022-11-26T22:33:59.624Z,102691.50
2022-11-26T22:36:27.616Z,102687.22
2022-11-26T22:38:55.800Z,102645.88
2022-11-26T22:41:24.415Z,102689.03
2022-11-26T22:43:52.336Z,102686.16
2022-11-26T22:46:22.938Z,102669.03
2022-11-26T22:48:53.429Z,102688.13
2022-11-26T22:51:22.224Z,102691.16
2022-11-26T22:53:53.878Z,102693.88
2022-11-26T22:56:22.287Z,102691.44
2022-11-26T22:58:50.301Z,102680.50
2022-11-26T23:01:21.260Z,102690.66
2022-11-26T23:03:50.287Z,102699.47
2022-11-26T23:06:22.211Z,102694.44
2022-11-26T23:08:50.962Z,102687.16
2022-11-26T23:11:22.003Z,102686.25
2022-11-26T23:13:50.872Z,102690.44
2022-11-26T23:16:21.319Z,102684.38
2022-11-26T23:18:49.743Z,102682.56
2022-11-26T23:21:21.699Z,102679.97
2022-11-26T23:23:50.629Z,102683.03
2022-11-26T23:26:26.533Z,102675.47
2022-11-26T23:28:56.033Z,102693.66
2022-11-26T23:31:26.233Z,102691.22
2022-11-26T23:33:54.513Z,102549.56
2022-11-26T23:36:24.531Z,102683.59
2022-11-26T23:38:52.656Z,102695.78
2022-11-26T23:41:20.609Z,102678.00
2022-11-26T23:43:49.244Z,102698.50
2022-11-26T23:46:19.534Z,102684.78
2022-11-26T23:48:48.118Z,102659.75
2022-11-26T23:51:18.709Z,102680.03
2022-11-26T23:53:48.842Z,102629.69
2022-11-26T23:56:18.852Z,102653.59
2022-11-26T23:58:50.051Z,102666.47
